createdAt,value
2019-02-05T00:01:56.665Z,51.05
2019-02-05T00:04:26.579Z,48.70
2019-02-05T00:06:56.377Z,47.45
2019-02-05T00:09:26.216Z,45.33
2019-02-05T00:11:56.324Z,51.63
2019-02-05T00:14:26.596Z,48.92
2019-02-05T00:16:56.220Z,51.80
2019-02-05T00:19:26.156Z,48.20
2019-02-05T00:21:55.840Z,47.38
2019-02-05T00:24:25.935Z,50.10
2019-02-05T00:26:55.599Z,48.25
2019-02-05T00:29:25.721Z,48.45
2019-02-05T00:31:55.500Z,50.25
2019-02-05T00:34:25.149Z,44.58
2019-02-05T00:36:54.865Z,52.93
2019-02-05T00:39:24.941Z,51.45
2019-02-05T00:41:55.352Z,51.85
2019-02-05T00:44:25.008Z,48.13
2019-02-05T00:46:54.713Z,47.90
2019-02-05T00:49:24.372Z,54.15
2019-02-05T00:51:54.136Z,50.63
2019-02-05T00:54:24.011Z,55.70
2019-02-05T00:56:54.142Z,52.38
2019-02-05T00:59:23.993Z,48.33
2019-02-05T01:01:54.836Z,51.42
2019-02-05T01:04:25.867Z,55.50
2019-02-05T01:06:55.675Z,55.40
2019-02-05T01:09:26.678Z,53.65
2019-02-05T01:12:01.276Z,57.10
2019-02-05T01:14:32.951Z,51.80
2019-02-05T01:17:03.044Z,54.83
2019-02-05T01:19:33.076Z,47.45
2019-02-05T01:22:02.730Z,58.55
2019-02-05T01:24:32.759Z,53.20
2019-02-05T01:27:02.551Z,51.92
2019-02-05T01:29:32.234Z,53.48
2019-02-05T01:32:02.093Z,51.10
2019-02-05T01:34:31.989Z,52.73
2019-02-05T01:37:03.706Z,52.08
2019-02-05T01:39:34.384Z,47.83
2019-02-05T01:42:04.244Z,49.10
2019-02-05T01:44:34.300Z,49.53
2019-02-05T01:47:04.406Z,47.43
2019-02-05T01:49:35.881Z,49.85
2019-02-05T01:52:07.206Z,48.68
2019-02-05T01:54:37.269Z,52.80
2019-02-05T01:57:07.920Z,46.80
2019-02-05T01:59:40.795Z,50.75
2019-02-05T02:02:10.653Z,52.03
2019-02-05T02:04:40.453Z,55.50
2019-02-05T02:07:10.657Z,52.38
2019-02-05T02:09:40.592Z,56.40
2019-02-05T02:12:10.271Z,51.50
2019-02-05T02:14:40.044Z,52.85
2019-02-05T04:21:43.853Z,56.45
2019-02-05T04:24:47.004Z,61.20
2019-02-05T04:27:58.656Z,52.38
2019-02-05T04:30:39.609Z,64.60
2019-02-05T04:34:05.194Z,52.67
2019-02-05T04:37:14.674Z,55.63
2019-02-05T04:40:02.721Z,57.87
2019-02-05T04:43:19.619Z,55.73
2019-02-05T04:46:01.026Z,52.90
2019-02-05T04:49:21.149Z,48.00
2019-02-05T04:52:44.041Z,51.60
2019-02-05T04:55:55.687Z,51.17
2019-02-05T04:58:57.303Z,56.13
2019-02-05T05:02:08.187Z,54.30
2019-02-05T05:04:50.908Z,47.20
2019-02-05T05:07:29.947Z,54.63
2019-02-05T05:10:02.652Z,54.03
2019-02-05T05:12:32.854Z,48.55
2019-02-05T05:15:02.496Z,53.40
2019-02-05T05:17:32.260Z,52.03
2019-02-05T05:20:02.045Z,56.20
2019-02-05T05:22:31.845Z,50.67
2019-02-05T05:25:01.669Z,54.60
2019-02-05T05:27:31.591Z,50.03
2019-02-05T05:30:01.386Z,56.87
2019-02-05T05:32:31.166Z,51.17
2019-02-05T05:35:00.773Z,52.17
2019-02-05T05:37:30.431Z,54.83
2019-02-05T05:40:00.384Z,51.73
2019-02-05T05:42:30.478Z,50.33
2019-02-05T05:45:00.284Z,51.80
2019-02-05T05:47:30.070Z,53.40
2019-02-05T05:49:59.958Z,48.63
2019-02-05T05:52:29.809Z,57.00
2019-02-05T05:54:59.559Z,53.27
2019-02-05T05:57:29.428Z,59.97
2019-02-05T05:59:59.245Z,53.93
2019-02-05T06:02:28.953Z,54.53
2019-02-05T06:04:58.733Z,54.87
2019-02-05T06:07:28.413Z,53.30
2019-02-05T06:09:58.251Z,57.60
2019-02-05T06:12:28.541Z,54.17
2019-02-05T06:14:58.326Z,55.77
2019-02-05T06:17:28.091Z,52.30
2019-02-05T06:19:57.778Z,54.97
2019-02-05T06:22:27.411Z,55.83
2019-02-05T06:24:57.067Z,57.37
2019-02-05T06:27:26.962Z,58.97
2019-02-05T06:29:56.749Z,57.00
2019-02-05T06:32:26.491Z,52.70
2019-02-05T06:34:56.262Z,50.60
2019-02-05T06:37:26.007Z,54.30
2019-02-05T06:39:55.715Z,48.93
2019-02-05T06:42:25.447Z,53.40
2019-02-05T06:44:55.218Z,54.57
2019-02-05T06:47:24.933Z,56.57
2019-02-05T06:49:54.568Z,56.00
2019-02-05T06:52:24.214Z,50.10
2019-02-05T06:54:53.978Z,54.80
2019-02-05T06:57:23.675Z,60.40
2019-02-05T06:59:53.710Z,55.40
2019-02-05T07:02:23.508Z,55.20
2019-02-05T07:04:53.121Z,53.77
2019-02-05T07:07:22.908Z,57.03
2019-02-05T07:09:52.683Z,52.77
2019-02-05T07:12:22.381Z,51.63
2019-02-05T07:14:52.374Z,55.50
2019-02-05T07:17:22.007Z,55.13
2019-02-05T07:19:51.650Z,52.47
2019-02-05T07:22:21.569Z,53.73
2019-02-05T07:24:51.249Z,45.53
2019-02-05T07:27:20.979Z,39.60
2019-02-05T07:29:51.181Z,42.70
2019-02-05T07:32:20.890Z,44.93
2019-02-05T07:34:50.768Z,43.60
2019-02-05T07:37:20.552Z,41.07
2019-02-05T07:39:50.398Z,43.90
2019-02-05T07:42:20.326Z,44.30
2019-02-05T07:44:50.142Z,42.07
2019-02-05T07:47:23.330Z,40.80
2019-02-05T07:49:51.689Z,40.90
2019-02-05T07:52:21.308Z,35.97
2019-02-05T07:54:50.974Z,35.10
2019-02-05T07:57:20.776Z,39.07
2019-02-05T07:59:50.853Z,39.10
2019-02-05T08:02:20.935Z,39.17
2019-02-05T08:04:50.660Z,37.47
2019-02-05T08:07:20.469Z,36.17
2019-02-05T08:09:50.204Z,33.83
2019-02-05T08:12:19.942Z,34.30
2019-02-05T08:14:49.729Z,41.20
2019-02-05T08:17:19.416Z,36.30
2019-02-05T08:19:49.172Z,33.23
2019-02-05T08:22:19.046Z,36.57
2019-02-05T08:24:48.737Z,40.13
2019-02-05T08:27:18.495Z,40.87
2019-02-05T08:29:48.114Z,36.17
2019-02-05T08:32:17.829Z,36.70
2019-02-05T08:34:47.514Z,38.53
2019-02-05T08:37:17.613Z,39.03
2019-02-05T08:39:47.328Z,40.43
2019-02-05T08:42:17.061Z,36.17
2019-02-05T08:44:46.835Z,34.10
2019-02-05T08:47:16.432Z,35.57
2019-02-05T08:49:46.121Z,37.73
2019-02-05T08:52:15.935Z,34.23
2019-02-05T08:54:45.645Z,34.53
2019-02-05T08:57:15.227Z,29.87
2019-02-05T08:59:44.973Z,29.97
2019-02-05T09:02:14.671Z,32.03
2019-02-05T09:04:44.364Z,29.83
2019-02-05T09:07:14.234Z,32.57
2019-02-05T09:09:44.202Z,32.77
2019-02-05T09:12:13.884Z,34.40
2019-02-05T09:14:43.604Z,39.10
2019-02-05T09:17:13.378Z,32.40
2019-02-05T09:19:43.226Z,30.07
2019-02-05T09:22:12.903Z,32.97
2019-02-05T09:24:42.784Z,31.90
2019-02-05T09:27:12.463Z,33.37
2019-02-05T09:29:42.280Z,33.03
2019-02-05T09:32:12.100Z,32.43
2019-02-05T09:34:41.717Z,31.57
2019-02-05T09:37:11.380Z,34.40
2019-02-05T09:39:41.254Z,34.60
2019-02-05T09:42:11.272Z,29.93
2019-02-05T09:44:41.035Z,30.23
2019-02-05T09:47:10.779Z,34.03
2019-02-05T09:49:40.533Z,34.83
2019-02-05T09:52:10.261Z,33.50
2019-02-05T09:54:39.932Z,34.07
2019-02-05T09:57:10.102Z,34.83
2019-02-05T09:59:45.425Z,33.50
2019-02-05T10:02:11.157Z,38.03
2019-02-05T10:04:41.000Z,32.40
2019-02-05T10:07:10.714Z,37.17
2019-02-05T10:09:40.364Z,36.30
2019-02-05T10:12:10.373Z,38.60
2019-02-05T10:14:40.035Z,37.17
2019-02-05T10:17:09.742Z,35.00
2019-02-05T10:19:39.561Z,40.43
2019-02-05T10:22:09.337Z,38.53
2019-02-05T10:24:39.141Z,41.30
2019-02-05T10:27:08.907Z,40.97
2019-02-05T10:29:38.882Z,42.47
2019-02-05T10:32:08.637Z,33.90
2019-02-05T10:34:39.548Z,35.97
2019-02-05T10:37:09.482Z,35.70
2019-02-05T10:39:39.274Z,37.13
2019-02-05T10:42:09.104Z,40.03
2019-02-05T10:44:39.007Z,40.20
2019-02-05T10:47:08.786Z,36.87
2019-02-05T10:49:38.575Z,41.13
2019-02-05T10:52:08.425Z,38.87
2019-02-05T10:54:38.223Z,37.97
2019-02-05T10:57:08.104Z,35.17
2019-02-05T10:59:38.219Z,37.73
2019-02-05T11:02:08.200Z,37.10
2019-02-05T11:04:37.998Z,36.17
2019-02-05T11:07:07.719Z,38.97
2019-02-05T11:09:37.379Z,38.43
2019-02-05T11:12:07.077Z,34.07
2019-02-05T11:14:36.803Z,31.93
2019-02-05T11:17:06.647Z,31.70
2019-02-05T11:19:36.483Z,37.93
2019-02-05T11:22:06.134Z,32.93
2019-02-05T11:24:35.753Z,36.50
2019-02-05T11:27:05.856Z,38.27
2019-02-05T11:29:35.689Z,38.47
2019-02-05T11:32:05.919Z,38.30
2019-02-05T11:34:35.570Z,41.17
2019-02-05T11:37:05.877Z,39.23
2019-02-05T11:39:35.827Z,41.60
2019-02-05T11:42:06.115Z,40.43
2019-02-05T11:44:36.040Z,41.73
2019-02-05T11:47:06.568Z,40.83
2019-02-05T11:49:39.126Z,38.80
2019-02-05T11:52:09.885Z,41.50
2019-02-05T11:54:39.941Z,41.37
2019-02-05T11:57:10.056Z,40.90
2019-02-05T11:59:39.790Z,40.83
2019-02-05T12:02:10.626Z,48.50
2019-02-05T12:04:40.767Z,38.23
2019-02-05T12:07:10.500Z,40.50
2019-02-05T12:09:40.733Z,39.77
2019-02-05T12:12:10.534Z,38.83
2019-02-05T12:14:40.361Z,41.97
2019-02-05T12:17:10.199Z,38.20
2019-02-05T12:19:39.909Z,35.57
2019-02-05T12:22:09.733Z,36.83
2019-02-05T12:24:39.540Z,39.23
2019-02-05T12:27:09.326Z,40.23
2019-02-05T12:29:39.138Z,38.37
2019-02-05T12:32:08.883Z,39.10
2019-02-05T12:34:39.022Z,37.73
2019-02-05T12:37:08.808Z,36.03
2019-02-05T12:39:38.546Z,32.90
2019-02-05T12:42:08.272Z,38.63
2019-02-05T12:44:38.070Z,38.43
2019-02-05T12:47:07.822Z,36.87
2019-02-05T12:49:37.507Z,34.77
2019-02-05T12:52:07.393Z,36.87
2019-02-05T12:54:37.128Z,38.17
2019-02-05T12:57:06.851Z,38.60
2019-02-05T12:59:36.608Z,37.60
2019-02-05T13:02:06.304Z,37.80
2019-02-05T13:04:36.472Z,34.77
2019-02-05T13:07:06.103Z,39.30
2019-02-05T13:09:35.778Z,41.73
2019-02-05T13:12:06.325Z,38.90
2019-02-05T13:14:36.149Z,44.13
2019-02-05T13:17:06.155Z,44.50
2019-02-05T13:19:35.783Z,37.47
2019-02-05T13:22:05.512Z,42.33
2019-02-05T13:24:35.291Z,38.93
2019-02-05T13:27:05.400Z,34.93
2019-02-05T13:29:35.043Z,40.20
2019-02-05T13:32:05.375Z,38.50
2019-02-05T13:34:35.172Z,35.57
2019-02-05T13:37:04.996Z,38.97
2019-02-05T13:39:34.674Z,41.00
2019-02-05T13:42:04.618Z,38.93
2019-02-05T13:44:34.426Z,35.70
2019-02-05T13:47:04.531Z,38.53
2019-02-05T13:49:34.257Z,39.23
2019-02-05T13:52:03.963Z,40.33
2019-02-05T13:54:33.625Z,38.70
2019-02-05T13:57:03.446Z,35.97
2019-02-05T13:59:33.247Z,37.17
2019-02-05T14:02:03.194Z,35.17
2019-02-05T14:04:32.870Z,32.00
2019-02-05T14:07:02.708Z,35.63
2019-02-05T14:09:32.364Z,33.33
2019-02-05T14:12:02.015Z,30.50
2019-02-05T14:14:31.643Z,32.87
2019-02-05T14:17:01.447Z,35.03
2019-02-05T14:19:31.056Z,35.57
2019-02-05T14:22:00.789Z,40.77
2019-02-05T14:24:31.495Z,34.93
2019-02-05T14:27:01.091Z,35.33
2019-02-05T14:29:30.895Z,36.07
2019-02-05T14:32:00.725Z,37.00
2019-02-05T14:34:30.399Z,37.47
2019-02-05T14:37:00.155Z,41.63
2019-02-05T14:39:29.943Z,38.60
2019-02-05T14:41:59.681Z,40.50
2019-02-05T14:44:29.336Z,38.77
2019-02-05T14:46:59.042Z,39.20
2019-02-05T14:49:28.768Z,37.77
2019-02-05T14:51:58.408Z,37.77
2019-02-05T14:54:28.048Z,37.20
2019-02-05T14:56:57.646Z,34.87
2019-02-05T14:59:27.702Z,36.27
2019-02-05T15:01:57.365Z,40.17
2019-02-05T15:04:27.130Z,40.50
2019-02-05T15:06:56.861Z,40.70
2019-02-05T15:09:26.636Z,40.50
2019-02-05T15:11:56.280Z,43.43
2019-02-05T15:14:26.823Z,38.20
2019-02-05T15:16:56.660Z,42.27
2019-02-05T15:19:26.286Z,40.40
2019-02-05T15:21:55.999Z,40.40
2019-02-05T15:24:36.834Z,38.17
2019-02-05T15:26:57.036Z,38.87
2019-02-05T15:29:26.767Z,42.70
2019-02-05T15:31:56.524Z,35.33
2019-02-05T15:34:28.634Z,36.87
2019-02-05T15:36:58.413Z,38.60
2019-02-05T15:39:28.153Z,39.30
2019-02-05T15:41:58.353Z,40.33
2019-02-05T15:44:28.166Z,45.10
2019-02-05T15:46:57.922Z,42.93
2019-02-05T15:49:27.644Z,41.97
2019-02-05T15:51:57.321Z,40.10
2019-02-05T15:54:27.118Z,42.43
2019-02-05T15:56:56.743Z,48.83
2019-02-05T15:59:26.503Z,49.37
2019-02-05T16:02:05.859Z,46.23
2019-02-05T16:04:27.427Z,49.40
2019-02-05T16:06:57.134Z,48.73
2019-02-05T16:09:26.865Z,44.97
2019-02-05T16:11:56.559Z,44.43
2019-02-05T16:14:26.175Z,53.00
2019-02-05T16:16:56.021Z,46.23
2019-02-05T16:19:25.720Z,59.23
2019-02-05T16:21:55.467Z,48.27
2019-02-05T16:24:25.565Z,43.43
2019-02-05T16:26:55.254Z,52.13
2019-02-05T16:29:24.894Z,59.90
2019-02-05T16:31:54.522Z,57.13
2019-02-05T16:34:24.220Z,52.83
2019-02-05T16:36:53.929Z,46.83
2019-02-05T16:39:23.653Z,64.63
2019-02-05T16:41:53.398Z,73.77
2019-02-05T16:44:23.061Z,48.40
2019-02-05T16:46:52.709Z,53.33
2019-02-05T16:49:22.697Z,45.70
2019-02-05T16:51:52.513Z,44.87
2019-02-05T16:54:22.720Z,44.93
2019-02-05T16:56:52.347Z,51.63
2019-02-05T16:59:22.125Z,49.73
2019-02-05T17:01:51.793Z,52.70
2019-02-05T17:04:21.534Z,50.87
2019-02-05T17:06:51.302Z,53.73
2019-02-05T17:09:21.346Z,69.07
2019-02-05T17:11:50.984Z,69.43
2019-02-05T17:14:20.654Z,52.70
2019-02-05T17:16:50.506Z,47.73
2019-02-05T17:19:20.236Z,47.40
2019-02-05T17:21:49.982Z,56.40
2019-02-05T17:24:19.720Z,54.57
2019-02-05T17:26:49.319Z,52.20
2019-02-05T17:29:18.965Z,56.80
2019-02-05T17:31:48.729Z,58.60
2019-02-05T17:34:18.519Z,50.57
2019-02-05T17:36:48.153Z,52.80
2019-02-05T17:39:17.899Z,54.00
2019-02-05T17:41:48.025Z,52.93
2019-02-05T17:44:17.792Z,58.27
2019-02-05T17:46:47.786Z,63.47
2019-02-05T17:49:17.417Z,69.00
2019-02-05T17:51:47.091Z,61.93
2019-02-05T17:54:16.973Z,67.77
2019-02-05T17:56:46.590Z,60.00
2019-02-05T17:59:16.328Z,62.73
2019-02-05T18:01:46.046Z,58.90
2019-02-05T18:04:15.824Z,64.63
2019-02-05T18:06:45.934Z,59.13
2019-02-05T18:09:15.593Z,65.43
2019-02-05T18:11:45.336Z,66.37
2019-02-05T18:14:15.148Z,65.73
2019-02-05T18:16:45.520Z,66.20
2019-02-05T18:19:15.155Z,64.33
2019-02-05T18:21:45.197Z,61.10
2019-02-05T18:24:14.915Z,58.07
2019-02-05T18:26:44.694Z,57.13
2019-02-05T18:29:14.466Z,60.17
2019-02-05T18:31:44.176Z,66.03
2019-02-05T18:34:14.915Z,70.03
2019-02-05T18:36:44.834Z,64.13
2019-02-05T18:39:14.690Z,61.60
2019-02-05T18:41:44.360Z,59.70
2019-02-05T18:44:14.003Z,63.87
2019-02-05T18:46:43.651Z,59.00
2019-02-05T18:49:13.315Z,68.10
2019-02-05T18:51:42.974Z,67.60
2019-02-05T18:54:12.730Z,74.33
2019-02-05T18:56:42.528Z,73.40
2019-02-05T18:59:12.266Z,61.83
2019-02-05T19:01:42.050Z,68.70
2019-02-05T19:04:11.754Z,60.03
2019-02-05T19:06:41.578Z,71.80
2019-02-05T19:09:13.976Z,65.27
2019-02-05T19:11:45.220Z,53.50
2019-02-05T19:14:15.051Z,47.77
2019-02-05T19:16:44.831Z,44.67
2019-02-05T19:19:17.213Z,57.40
2019-02-05T19:21:46.973Z,63.60
2019-02-05T19:24:34.667Z,64.93
2019-02-05T19:27:04.487Z,69.67
2019-02-05T19:29:34.610Z,54.07
2019-02-05T19:32:04.412Z,58.13
2019-02-05T19:34:34.200Z,64.17
2019-02-05T19:37:04.111Z,60.17
2019-02-05T19:39:33.904Z,55.53
2019-02-05T19:42:03.614Z,56.90
2019-02-05T19:44:34.223Z,58.53
2019-02-05T19:47:06.890Z,61.43
2019-02-05T19:49:38.399Z,56.03
2019-02-05T19:52:08.286Z,51.87
2019-02-05T19:54:38.105Z,59.53
2019-02-05T19:57:07.978Z,57.43
2019-02-05T19:59:38.015Z,55.97
2019-02-05T20:02:08.847Z,64.57
2019-02-05T20:04:38.496Z,51.87
2019-02-05T20:07:08.132Z,55.47
2019-02-05T20:09:37.784Z,49.83
2019-02-05T20:12:07.447Z,53.27
2019-02-05T20:14:37.026Z,62.40
2019-02-05T20:17:07.093Z,55.93
2019-02-05T20:19:36.841Z,54.63
2019-02-05T20:22:06.547Z,61.50
2019-02-05T20:24:36.372Z,63.47
2019-02-05T20:27:08.695Z,83.15
2019-02-05T20:29:40.047Z,67.43
2019-02-05T20:32:11.292Z,69.43
2019-02-05T20:34:41.287Z,70.53
2019-02-05T20:37:11.143Z,67.17
2019-02-05T20:39:40.818Z,70.07
2019-02-05T20:42:10.444Z,64.37
2019-02-05T20:44:40.236Z,65.00
2019-02-05T20:47:10.479Z,60.77
2019-02-05T20:49:40.307Z,66.97
2019-02-05T20:52:10.065Z,63.77
2019-02-05T20:54:39.835Z,64.07
2019-02-05T20:57:09.531Z,70.27
2019-02-05T20:59:39.294Z,63.10
2019-02-05T21:02:09.837Z,67.90
2019-02-05T21:04:47.867Z,63.73
2019-02-05T21:07:10.972Z,59.30
2019-02-05T21:09:42.204Z,65.37
2019-02-05T21:12:12.204Z,63.63
2019-02-05T21:14:42.284Z,82.37
2019-02-05T21:17:12.851Z,77.87
2019-02-05T21:19:42.709Z,72.27
2019-02-05T21:22:12.755Z,59.40
2019-02-05T21:24:42.546Z,72.80
2019-02-05T21:27:12.344Z,61.25
2019-02-05T21:29:42.542Z,71.40
2019-02-05T21:32:12.889Z,66.57
2019-02-05T21:34:42.637Z,66.50
2019-02-05T21:37:12.517Z,81.25
2019-02-05T21:39:42.263Z,62.67
2019-02-05T21:42:12.063Z,92.23
2019-02-05T21:44:41.712Z,62.10
2019-02-05T21:47:11.610Z,68.50
2019-02-05T21:49:41.394Z,84.50
2019-02-05T21:52:11.103Z,102.03
2019-02-05T21:54:40.709Z,76.20
2019-02-05T21:57:10.467Z,103.53
2019-02-05T21:59:40.144Z,75.52
2019-02-05T22:02:09.882Z,102.57
2019-02-05T22:04:39.880Z,78.37
2019-02-05T22:07:09.884Z,66.90
2019-02-05T22:09:39.448Z,84.33
2019-02-05T22:12:09.409Z,81.82
2019-02-05T22:14:39.254Z,82.37
2019-02-05T22:17:09.510Z,84.70
2019-02-05T22:19:39.291Z,65.00
2019-02-05T22:22:09.182Z,67.45
2019-02-05T22:24:39.072Z,70.90
2019-02-05T22:27:09.286Z,75.07
2019-02-05T22:29:39.167Z,107.67
2019-02-05T22:32:08.919Z,271.10
2019-02-05T22:34:39.651Z,114.77
2019-02-05T22:37:09.539Z,60.73
2019-02-05T22:39:39.524Z,56.65
2019-02-05T22:42:09.276Z,54.50
2019-02-05T22:44:39.234Z,56.97
2019-02-05T22:47:08.955Z,44.85
2019-02-05T22:49:38.560Z,46.07
2019-02-05T22:52:08.319Z,51.97
2019-02-05T22:54:38.274Z,42.97
2019-02-05T22:57:08.078Z,46.33
2019-02-05T22:59:37.986Z,43.67
2019-02-05T23:02:07.820Z,64.65
2019-02-05T23:04:57.238Z,37.73
2019-02-05T23:07:28.896Z,44.27
2019-02-05T23:10:23.515Z,50.28
2019-02-05T23:13:00.330Z,48.25
2019-02-05T23:15:30.623Z,66.65
2019-02-05T23:18:00.914Z,48.40
2019-02-05T23:20:33.872Z,51.37
2019-02-05T23:23:06.413Z,55.47
2019-02-05T23:25:36.111Z,61.50
2019-02-05T23:28:06.591Z,70.77
2019-02-05T23:30:36.381Z,61.63
2019-02-05T23:33:06.098Z,51.60
2019-02-05T23:35:35.854Z,53.90
2019-02-05T23:38:06.417Z,64.45
2019-02-05T23:40:36.230Z,49.27
2019-02-05T23:43:06.108Z,62.00
2019-02-05T23:45:35.897Z,47.25
2019-02-05T23:48:06.303Z,76.22
2019-02-05T23:50:36.032Z,48.95
2019-02-05T23:53:05.908Z,192.87
2019-02-05T23:55:35.583Z,56.50
2019-02-05T23:58:05.655Z,69.07
